Time;durP1;ratioP1;P1;durP2;ratioP2;P2;SDS_P1;SDS_P2;PMS_P1;PMS_P2;Temp;Humidity;BMP_temperature;BMP_pressure;BME280_temperature;BME280_humidity;BME280_pressure;Samples;Min_cycle;Max_cycle;Signal;HPM_P1;HPM_P2
2021/12/26 00:02:11;;;;;;;4.00;3.60;;;-1.40;69.00;;;;;;2614008;54;20451;-78
2021/12/26 00:04:37;;;;;;;7.13;4.50;;;-1.50;69.80;;;;;;2613752;54;20383;-79
2021/12/26 00:07:04;;;;;;;3.77;3.47;;;-1.50;70.50;;;;;;2613126;54;20406;-78
2021/12/26 00:09:30;;;;;;;4.07;3.77;;;-1.30;70.20;;;;;;2613707;39;20876;-79
2021/12/26 00:11:58;;;;;;;3.37;3.07;;;-1.30;68.30;;;;;;2613014;47;20442;-76
2021/12/26 00:14:24;;;;;;;6.17;3.87;;;-1.20;70.10;;;;;;2612919;39;20798;-78
2021/12/26 00:16:50;;;;;;;5.23;4.70;;;-1.00;69.20;;;;;;2613524;54;20426;-78
2021/12/26 00:19:15;;;;;;;7.93;5.20;;;-0.80;67.60;;;;;;2613633;54;20168;-79
2021/12/26 00:21:41;;;;;;;4.23;3.80;;;-1.00;65.70;;;;;;2613674;39;20949;-79
2021/12/26 00:24:07;;;;;;;4.97;3.60;;;-0.90;67.40;;;;;;2613463;54;20403;-77
2021/12/26 00:26:33;;;;;;;3.97;3.70;;;-1.00;68.70;;;;;;2614780;54;20501;-78
2021/12/26 00:29:00;;;;;;;4.40;4.07;;;-1.00;69.10;;;;;;2613608;54;20470;-77
2021/12/26 00:31:26;;;;;;;4.10;3.70;;;-1.10;69.40;;;;;;2613216;54;20510;-76
2021/12/26 00:33:53;;;;;;;5.20;4.60;;;-0.80;69.00;;;;;;2612931;47;20400;-80
2021/12/26 00:36:19;;;;;;;4.30;3.93;;;-0.60;68.10;;;;;;2611912;51;20939;-77
2021/12/26 00:38:45;;;;;;;6.07;4.27;;;-0.30;67.60;;;;;;2611963;47;20379;-79
2021/12/26 00:41:11;;;;;;;4.37;4.07;;;-0.40;66.00;;;;;;2613665;54;20398;-76
2021/12/26 00:43:37;;;;;;;5.00;4.03;;;-0.30;66.00;;;;;;2612916;54;20395;-77
2021/12/26 00:46:04;;;;;;;4.07;3.77;;;-0.50;68.90;;;;;;2612837;47;20415;-77
2021/12/26 00:48:30;;;;;;;4.10;3.73;;;-0.50;67.40;;;;;;2612770;54;20406;-78
2021/12/26 00:50:56;;;;;;;7.10;4.13;;;-0.70;69.00;;;;;;2613427;54;20485;-76
2021/12/26 00:53:22;;;;;;;5.90;4.40;;;-0.70;70.80;;;;;;2612731;54;20407;-79
2021/12/26 00:55:49;;;;;;;4.23;3.87;;;-0.60;70.70;;;;;;2612672;54;20551;-79
2021/12/26 00:58:15;;;;;;;5.03;4.53;;;-0.60;70.30;;;;;;2613748;54;20390;-78
2021/12/26 01:00:46;;;;;;;3.77;3.43;;;-0.20;66.40;;;;;;2613121;54;20399;-79
2021/12/26 01:03:14;;;;;;;4.40;4.00;;;0.00;65.20;;;;;;2614937;54;20198;-79
2021/12/26 01:05:43;;;;;;;4.90;3.90;;;0.00;67.70;;;;;;2613758;54;20543;-78
2021/12/26 01:08:13;;;;;;;5.20;4.30;;;-0.10;67.00;;;;;;2612601;47;20418;-78
2021/12/26 01:10:48;;;;;;;4.83;4.13;;;-0.30;69.10;;;;;;2613210;47;20441;-77
2021/12/26 01:13:22;;;;;;;6.60;4.40;;;-0.70;72.90;;;;;;2612659;54;20402;-77
2021/12/26 01:15:53;;;;;;;5.60;4.20;;;-0.40;72.70;;;;;;2611696;47;20394;-78
2021/12/26 01:18:24;;;;;;;5.00;4.60;;;-0.40;70.30;;;;;;2614134;54;20395;-77
2021/12/26 01:20:59;;;;;;;4.53;4.13;;;-0.40;71.20;;;;;;2613077;54;20559;-78
2021/12/26 01:23:27;;;;;;;4.40;3.57;;;-0.50;71.50;;;;;;2612565;54;20428;-79
2021/12/26 01:25:55;;;;;;;7.43;4.07;;;-0.40;72.20;;;;;;2613460;47;20522;-79
2021/12/26 01:28:28;;;;;;;4.63;4.00;;;-0.50;72.10;;;;;;2612658;39;20693;-79
2021/12/26 01:30:57;;;;;;;3.80;3.57;;;-0.80;73.80;;;;;;2611675;47;20935;-79
2021/12/26 01:33:24;;;;;;;4.20;3.83;;;-0.80;75.20;;;;;;2612803;39;20812;-77
2021/12/26 01:35:57;;;;;;;3.70;3.40;;;-0.90;76.70;;;;;;2613387;54;20407;-78
2021/12/26 01:38:39;;;;;;;4.17;3.87;;;-0.90;77.60;;;;;;2613290;51;20536;-77
2021/12/26 01:41:25;;;;;;;3.43;3.13;;;-0.90;78.60;;;;;;2612427;54;20468;-78
2021/12/26 01:44:17;;;;;;;4.87;4.10;;;-1.00;79.30;;;;;;2612695;54;20404;-79
2021/12/26 01:46:47;;;;;;;6.00;4.90;;;-0.80;78.30;;;;;;2613079;47;20374;-79
2021/12/26 01:49:17;;;;;;;9.40;4.43;;;-0.70;78.20;;;;;;2613702;47;20434;-78
2021/12/26 01:51:46;;;;;;;4.97;4.53;;;-0.80;78.60;;;;;;2612428;54;20421;-79
2021/12/26 01:54:16;;;;;;;4.33;3.93;;;-1.00;79.30;;;;;;2613204;54;20398;-78
2021/12/26 01:56:43;;;;;;;4.37;3.90;;;-1.00;80.90;;;;;;2613930;54;20439;-78
2021/12/26 01:59:11;;;;;;;4.10;3.80;;;-0.90;80.30;;;;;;2613477;54;20407;-78
2021/12/26 02:01:47;;;;;;;4.87;4.47;;;-1.00;82.70;;;;;;2612347;54;20455;-78
2021/12/26 02:04:13;;;;;;;5.50;4.90;;;-0.90;80.80;;;;;;2613509;47;20406;-77
2021/12/26 02:06:39;;;;;;;7.03;4.40;;;-0.60;80.30;;;;;;2611916;54;20414;-77
2021/12/26 02:09:05;;;;;;;4.97;4.53;;;-0.50;79.80;;;;;;2612768;47;20429;-79
2021/12/26 02:11:31;;;;;;;4.83;4.37;;;-0.30;76.80;;;;;;2612864;54;20154;-82
2021/12/26 02:13:58;;;;;;;6.80;4.37;;;-0.30;77.30;;;;;;2612908;39;20822;-80
2021/12/26 02:16:28;;;;;;;4.13;3.80;;;-0.20;75.00;;;;;;2611602;47;20418;-78
2021/12/26 02:18:54;;;;;;;4.50;4.00;;;-0.30;75.90;;;;;;2613296;47;20951;-79
2021/12/26 02:24:28;;;;;;;4.80;4.33;;;-0.20;75.10;;;;;;2613406;53;20266;-78
2021/12/26 02:29:41;;;;;;;4.60;4.20;;;-0.60;76.20;;;;;;2612466;54;20433;-78
2021/12/26 02:32:08;;;;;;;7.70;3.93;;;-0.70;76.20;;;;;;2612151;39;20951;-79
2021/12/26 02:34:35;;;;;;;6.97;4.00;;;-0.50;76.20;;;;;;2614380;47;20911;-79
2021/12/26 02:37:03;;;;;;;4.30;4.00;;;-0.50;76.60;;;;;;2613288;39;20789;-78
2021/12/26 02:39:31;;;;;;;5.27;4.77;;;-0.60;76.90;;;;;;2614320;54;20442;-79
2021/12/26 02:41:58;;;;;;;4.43;4.07;;;-0.60;76.20;;;;;;2613030;47;20415;-78
2021/12/26 02:44:24;;;;;;;5.50;3.77;;;-0.60;76.20;;;;;;2613272;47;20485;-78
2021/12/26 02:46:51;;;;;;;4.87;4.37;;;-0.60;76.20;;;;;;2612990;47;20431;-78
2021/12/26 02:49:25;;;;;;;4.60;4.27;;;-0.60;76.80;;;;;;2613912;47;20170;-78
2021/12/26 02:51:52;;;;;;;5.40;4.50;;;-0.60;76.20;;;;;;2613007;47;20426;-78
2021/12/26 02:54:18;;;;;;;10.23;5.33;;;-0.70;77.90;;;;;;2614383;54;20415;-78
2021/12/26 02:56:45;;;;;;;5.83;4.53;;;-0.60;78.20;;;;;;2613344;54;20427;-77
2021/12/26 02:59:10;;;;;;;6.07;4.73;;;-0.30;74.80;;;;;;2614511;39;20805;-78
2021/12/26 03:01:36;;;;;;;5.97;4.37;;;-0.60;76.20;;;;;;2613069;54;20502;-79
2021/12/26 03:04:04;;;;;;;5.40;3.80;;;-0.80;77.10;;;;;;2613547;54;20419;-78
2021/12/26 03:06:39;;;;;;;5.47;4.97;;;-0.90;80.40;;;;;;2612870;47;20503;-78
2021/12/26 03:09:06;;;;;;;4.43;4.03;;;-0.80;79.20;;;;;;2614500;47;20494;-79
2021/12/26 03:11:32;;;;;;;8.30;4.60;;;-0.60;77.70;;;;;;2613235;54;20416;-78
2021/12/26 03:13:58;;;;;;;6.23;4.53;;;-0.60;76.20;;;;;;2613760;51;20525;-78
2021/12/26 03:16:24;;;;;;;5.07;4.67;;;-0.70;77.40;;;;;;2612845;54;20150;-78
2021/12/26 03:18:56;;;;;;;6.00;4.43;;;-0.70;78.10;;;;;;2613570;46;20409;-79
2021/12/26 03:21:22;;;;;;;4.53;4.17;;;-0.40;77.80;;;;;;2611602;39;20582;-79
2021/12/26 03:23:47;;;;;;;4.60;4.20;;;-0.30;76.40;;;;;;2612032;47;20465;-80
2021/12/26 03:26:13;;;;;;;4.70;4.27;;;-0.20;75.30;;;;;;2614223;39;20602;-78
2021/12/26 03:28:40;;;;;;;4.53;4.13;;;-0.40;76.40;;;;;;2613855;54;20331;-77
2021/12/26 03:31:06;;;;;;;5.03;4.53;;;-0.40;75.50;;;;;;2613220;47;21019;-78
2021/12/26 03:33:35;;;;;;;4.60;4.20;;;-0.10;74.50;;;;;;2613405;39;21233;-80
2021/12/26 03:36:01;;;;;;;5.40;4.57;;;-0.10;72.20;;;;;;2613347;47;20502;-78
2021/12/26 03:38:29;;;;;;;4.90;3.70;;;-0.10;73.40;;;;;;2612737;47;20198;-79
2021/12/26 03:41:06;;;;;;;3.77;3.47;;;-0.20;71.90;;;;;;2612972;39;20883;-78
2021/12/26 03:43:34;;;;;;;5.23;4.57;;;-0.50;73.90;;;;;;2613633;47;20442;-79
2021/12/26 03:46:00;;;;;;;5.60;5.10;;;-0.20;73.50;;;;;;2611947;47;20387;-77
2021/12/26 03:48:28;;;;;;;4.10;3.80;;;0.10;72.90;;;;;;2613558;51;20970;-78
2021/12/26 03:50:57;;;;;;;5.10;4.30;;;-0.20;70.80;;;;;;2613031;47;20413;-78
2021/12/26 03:53:23;;;;;;;4.23;3.80;;;-0.20;73.20;;;;;;2613512;54;20429;-77
2021/12/26 03:55:50;;;;;;;5.10;4.57;;;-0.40;72.80;;;;;;2613660;39;20466;-79
2021/12/26 03:58:17;;;;;;;4.73;3.90;;;-0.30;73.60;;;;;;2613475;47;20430;-79
2021/12/26 04:00:45;;;;;;;5.60;4.47;;;-0.30;73.70;;;;;;2612579;47;20413;-77
2021/12/26 04:03:12;;;;;;;4.00;3.50;;;-0.50;74.10;;;;;;2613293;54;20430;-78
2021/12/26 04:05:48;;;;;;;4.13;3.80;;;-0.50;74.90;;;;;;2613934;47;20414;-78
2021/12/26 04:08:14;;;;;;;5.60;4.23;;;-0.50;76.20;;;;;;2612011;47;20409;-79
2021/12/26 04:10:40;;;;;;;4.50;4.10;;;-0.30;73.60;;;;;;2613000;54;20555;-77
2021/12/26 04:13:06;;;;;;;8.73;4.60;;;-0.30;72.00;;;;;;2612745;54;20394;-79
2021/12/26 04:15:33;;;;;;;5.93;3.33;;;-0.40;73.60;;;;;;2613057;39;20864;-78
2021/12/26 04:18:00;;;;;;;4.53;4.13;;;-0.30;72.40;;;;;;2612793;47;20507;-79
2021/12/26 04:20:28;;;;;;;5.73;4.50;;;-0.50;73.40;;;;;;2613008;39;20781;-75
2021/12/26 04:22:55;;;;;;;4.83;3.87;;;-0.60;75.60;;;;;;2612889;47;20481;-81
2021/12/26 04:25:21;;;;;;;3.80;3.50;;;-0.60;74.60;;;;;;2613682;54;20403;-79
2021/12/26 04:27:48;;;;;;;4.13;3.83;;;-0.60;75.20;;;;;;2612985;54;20427;-78
2021/12/26 04:30:15;;;;;;;3.13;2.93;;;-0.60;73.60;;;;;;2613117;54;20474;-79
2021/12/26 04:32:41;;;;;;;5.97;4.63;;;-0.70;75.80;;;;;;2612989;54;20383;-79
2021/12/26 04:35:08;;;;;;;4.43;3.33;;;-0.80;77.40;;;;;;2613516;51;20531;-77
2021/12/26 04:37:34;;;;;;;4.40;4.00;;;-0.50;75.40;;;;;;2614126;47;20403;-80
2021/12/26 04:40:03;;;;;;;3.97;3.50;;;-0.50;76.20;;;;;;2613602;54;20436;-78
2021/12/26 04:42:41;;;;;;;3.97;3.67;;;-0.50;73.70;;;;;;2613463;54;20454;-78
2021/12/26 04:45:23;;;;;;;4.00;3.70;;;-0.30;73.20;;;;;;2613266;47;20407;-78
2021/12/26 04:48:09;;;;;;;4.07;3.60;;;-0.40;72.70;;;;;;2611477;54;20371;-78
2021/12/26 04:50:35;;;;;;;4.93;3.77;;;-0.70;74.10;;;;;;2612470;47;20447;-77
2021/12/26 04:53:05;;;;;;;3.40;3.20;;;-0.50;75.10;;;;;;2612559;50;21062;-79
2021/12/26 04:55:31;;;;;;;3.67;3.20;;;-0.50;73.80;;;;;;2612301;47;20442;-79
2021/12/26 04:57:57;;;;;;;4.10;3.70;;;-0.50;72.10;;;;;;2613027;47;20391;-79
2021/12/26 05:00:26;;;;;;;3.73;3.43;;;-0.30;74.10;;;;;;2612074;47;20182;-78
2021/12/26 05:02:53;;;;;;;5.57;4.57;;;-0.40;73.20;;;;;;2612568;51;21057;-78
2021/12/26 05:05:20;;;;;;;4.17;3.87;;;-0.40;71.70;;;;;;2613613;54;20394;-78
2021/12/26 05:07:46;;;;;;;4.50;4.10;;;-0.10;72.00;;;;;;2611958;54;20427;-80
2021/12/26 05:10:15;;;;;;;6.43;3.73;;;-0.30;71.20;;;;;;2613119;47;20503;-77
2021/12/26 05:12:42;;;;;;;5.00;4.60;;;-0.40;71.90;;;;;;2610723;47;20427;-79
2021/12/26 05:15:09;;;;;;;4.43;4.03;;;-0.60;73.80;;;;;;2613127;54;20419;-77
2021/12/26 05:17:37;;;;;;;5.03;4.53;;;-0.30;73.20;;;;;;2611930;54;20446;-79
2021/12/26 05:20:05;;;;;;;6.00;4.37;;;-0.10;71.50;;;;;;2612406;51;21041;-78
2021/12/26 05:22:30;;;;;;;4.20;3.73;;;0.00;69.70;;;;;;2611322;47;20447;-78
2021/12/26 05:24:56;;;;;;;4.57;4.17;;;-0.20;71.30;;;;;;2612232;47;20428;-79
2021/12/26 05:27:24;;;;;;;4.27;3.87;;;-0.10;70.40;;;;;;2613559;47;20394;-79
2021/12/26 05:29:50;;;;;;;10.03;4.30;;;-0.20;71.90;;;;;;2613252;51;20406;-78
2021/12/26 05:32:17;;;;;;;4.73;3.90;;;-0.30;71.50;;;;;;2611626;47;20422;-78
2021/12/26 05:34:44;;;;;;;4.70;4.30;;;-0.30;72.00;;;;;;2613948;51;20522;-78
2021/12/26 05:37:09;;;;;;;4.00;3.70;;;-0.10;72.20;;;;;;2612908;54;20406;-77
2021/12/26 05:39:36;;;;;;;4.50;4.10;;;-0.10;70.60;;;;;;2612344;54;20454;-79
2021/12/26 05:42:03;;;;;;;5.20;3.83;;;-0.10;70.00;;;;;;2611944;48;20478;-77
2021/12/26 05:44:31;;;;;;;4.47;4.07;;;-0.30;72.60;;;;;;2612510;54;20431;-79
2021/12/26 05:47:00;;;;;;;5.37;4.90;;;-0.30;71.90;;;;;;2612823;47;20922;-78
2021/12/26 05:49:30;;;;;;;4.60;4.27;;;-0.10;70.60;;;;;;2611738;47;20517;-79
2021/12/26 05:52:06;;;;;;;6.90;4.20;;;-0.10;71.10;;;;;;2611079;47;20415;-76
2021/12/26 05:54:47;;;;;;;4.33;4.03;;;-0.20;70.80;;;;;;2612626;54;20412;-78
2021/12/26 05:57:13;;;;;;;4.10;3.70;;;0.00;69.80;;;;;;2612626;54;20450;-78
2021/12/26 05:59:39;;;;;;;4.93;4.40;;;0.10;68.90;;;;;;2613844;54;20395;-77
2021/12/26 06:02:05;;;;;;;4.40;4.00;;;-0.30;70.80;;;;;;2611030;54;20431;-77
2021/12/26 06:04:33;;;;;;;4.67;4.27;;;-0.30;72.00;;;;;;2612804;54;20402;-80
2021/12/26 06:06:59;;;;;;;4.43;3.97;;;-0.20;73.00;;;;;;2613877;39;20599;-78
2021/12/26 06:09:29;;;;;;;8.07;4.40;;;0.00;71.70;;;;;;2613009;47;20496;-78
2021/12/26 06:11:55;;;;;;;4.20;3.90;;;-0.10;71.20;;;;;;2613082;46;20546;-78
2021/12/26 06:14:21;;;;;;;4.50;4.10;;;-0.20;71.10;;;;;;2614313;51;20426;-78
2021/12/26 06:16:47;;;;;;;5.17;4.77;;;-0.20;72.00;;;;;;2613951;54;20518;-77
2021/12/26 06:19:36;;;;;;;6.70;4.40;;;0.00;71.10;;;;;;2613745;47;20406;-79
2021/12/26 06:22:25;;;;;;;4.70;4.30;;;0.10;70.70;;;;;;2613694;47;20429;-79
2021/12/26 06:25:12;;;;;;;5.60;3.60;;;0.10;71.00;;;;;;2613942;54;21078;-79
2021/12/26 06:27:52;;;;;;;6.00;4.53;;;0.10;70.60;;;;;;2614326;46;20397;-79
2021/12/26 06:30:34;;;;;;;5.00;4.50;;;0.30;70.50;;;;;;2615692;54;20429;-80
2021/12/26 06:33:19;;;;;;;4.27;3.87;;;0.10;70.80;;;;;;2614106;54;20978;-79
2021/12/26 06:36:04;;;;;;;5.93;4.47;;;0.20;73.50;;;;;;2614800;54;20395;-79
2021/12/26 06:38:34;;;;;;;4.77;4.27;;;0.50;69.00;;;;;;2615298;46;20448;-78
2021/12/26 06:41:18;;;;;;;4.07;3.60;;;0.60;70.00;;;;;;2621174;39;20712;-75
2021/12/26 06:44:05;;;;;;;4.10;3.80;;;0.20;69.50;;;;;;2626142;54;20420;-75
2021/12/26 06:46:52;;;;;;;4.13;3.70;;;0.20;71.60;;;;;;2624050;54;20429;-78
2021/12/26 06:49:27;;;;;;;4.70;4.20;;;0.10;73.90;;;;;;2618687;47;20398;-78
2021/12/26 06:51:54;;;;;;;7.03;4.40;;;0.20;73.50;;;;;;2614507;39;20972;-78
2021/12/26 06:54:20;;;;;;;4.87;4.13;;;0.30;73.00;;;;;;2616014;54;20161;-77
2021/12/26 06:56:45;;;;;;;4.10;3.77;;;0.30;73.30;;;;;;2615968;47;20435;-77
2021/12/26 06:59:11;;;;;;;4.63;4.10;;;0.40;73.30;;;;;;2615673;54;20399;-76
2021/12/26 07:01:37;;;;;;;4.07;3.77;;;0.60;71.90;;;;;;2614904;54;20155;-76
2021/12/26 07:04:05;;;;;;;3.73;3.43;;;0.70;70.40;;;;;;2612110;51;20605;-76
2021/12/26 07:06:32;;;;;;;4.13;3.70;;;0.50;72.10;;;;;;2610948;54;20433;-77
2021/12/26 07:09:04;;;;;;;5.93;4.30;;;0.50;71.90;;;;;;2612647;46;20947;-79
2021/12/26 07:11:33;;;;;;;5.50;4.47;;;0.90;70.10;;;;;;2610845;39;20858;-79
2021/12/26 07:13:59;;;;;;;5.37;4.20;;;0.60;73.50;;;;;;2610146;47;20445;-76
2021/12/26 07:16:29;;;;;;;5.93;4.50;;;0.50;73.40;;;;;;2611656;54;20535;-77
2021/12/26 07:18:56;;;;;;;4.77;4.33;;;0.60;73.20;;;;;;2612204;54;21023;-78
2021/12/26 07:21:31;;;;;;;4.53;3.70;;;0.40;76.30;;;;;;2614249;47;20486;-78
2021/12/26 07:24:05;;;;;;;4.93;3.70;;;0.50;75.30;;;;;;2613838;47;20467;-78
2021/12/26 07:26:31;;;;;;;4.80;4.30;;;0.70;74.10;;;;;;2614594;51;20423;-78
2021/12/26 07:28:59;;;;;;;6.93;4.90;;;0.60;74.30;;;;;;2613508;54;20415;-79
2021/12/26 07:31:30;;;;;;;6.10;4.97;;;0.70;73.30;;;;;;2614429;54;20470;-79
2021/12/26 07:34:01;;;;;;;5.80;4.50;;;0.50;75.60;;;;;;2613054;47;20391;-79
2021/12/26 07:36:28;;;;;;;5.57;4.83;;;0.50;76.10;;;;;;2613565;54;20415;-81
2021/12/26 07:39:14;;;;;;;5.50;4.50;;;0.40;76.80;;;;;;2611903;54;20515;-79
2021/12/26 07:41:40;;;;;;;6.50;5.03;;;0.30;77.70;;;;;;2612066;54;21082;-80
2021/12/26 07:44:26;;;;;;;5.00;4.47;;;0.40;78.60;;;;;;2609842;54;20418;-77
2021/12/26 07:47:13;;;;;;;6.93;5.00;;;0.50;78.40;;;;;;2612321;39;20884;-77
2021/12/26 07:49:40;;;;;;;5.20;4.70;;;0.50;77.60;;;;;;2612194;47;20430;-78
2021/12/26 07:52:29;;;;;;;6.60;5.33;;;0.50;79.60;;;;;;2610749;39;20879;-78
2021/12/26 07:55:14;;;;;;;5.17;4.67;;;0.50;80.80;;;;;;2611471;54;20513;-79
2021/12/26 07:57:58;;;;;;;4.30;3.90;;;0.40;81.00;;;;;;2611472;54;20407;-78
2021/12/26 08:00:51;;;;;;;4.80;4.07;;;0.30;83.30;;;;;;2611642;39;20806;-78
2021/12/26 08:03:53;;;;;;;6.13;4.57;;;0.50;84.10;;;;;;2610503;47;20394;-79
2021/12/26 08:06:53;;;;;;;6.57;5.00;;;0.40;81.50;;;;;;2611198;54;20402;-79
2021/12/26 08:09:19;;;;;;;5.33;4.57;;;0.50;83.60;;;;;;2611415;51;20582;-80
2021/12/26 08:11:45;;;;;;;4.87;4.47;;;0.70;81.50;;;;;;2610795;39;20869;-80
2021/12/26 08:14:11;;;;;;;5.97;5.37;;;0.60;84.30;;;;;;2612146;46;20391;-80
2021/12/26 08:16:38;;;;;;;6.17;5.00;;;0.50;84.10;;;;;;2612435;54;20527;-80
2021/12/26 08:19:06;;;;;;;5.70;4.90;;;0.40;85.60;;;;;;2612899;54;20434;-78
2021/12/26 08:21:33;;;;;;;5.03;4.33;;;0.60;85.90;;;;;;2612100;54;20434;-78
2021/12/26 08:23:59;;;;;;;5.47;4.93;;;0.80;83.60;;;;;;2609804;47;20426;-78
2021/12/26 08:26:25;;;;;;;4.90;4.30;;;0.70;83.30;;;;;;2610353;47;20411;-78
2021/12/26 08:28:51;;;;;;;6.50;4.47;;;0.70;84.80;;;;;;2613337;54;20943;-78
2021/12/26 08:31:19;;;;;;;6.60;5.67;;;1.00;82.60;;;;;;2612835;39;20537;-78
2021/12/26 08:33:45;;;;;;;7.07;4.93;;;1.30;78.50;;;;;;2613712;47;20398;-78
2021/12/26 08:36:10;;;;;;;7.10;5.07;;;1.50;76.80;;;;;;2613056;54;20457;-78
2021/12/26 08:38:38;;;;;;;7.03;4.70;;;1.30;78.40;;;;;;2613194;54;20158;-75
2021/12/26 08:41:04;;;;;;;5.03;4.53;;;1.40;77.70;;;;;;2612181;54;20200;-78
2021/12/26 08:43:30;;;;;;;5.33;4.83;;;1.50;76.60;;;;;;2613625;47;20402;-78
2021/12/26 08:45:56;;;;;;;5.73;5.23;;;1.40;78.10;;;;;;2614722;39;20812;-79
2021/12/26 08:48:22;;;;;;;6.80;5.23;;;1.10;81.20;;;;;;2614139;54;20398;-79
2021/12/26 08:50:48;;;;;;;6.27;5.13;;;1.20;81.70;;;;;;2614881;54;20419;-80
2021/12/26 08:53:14;;;;;;;5.90;5.23;;;1.10;82.90;;;;;;2613779;54;20191;-78
2021/12/26 08:55:40;;;;;;;17.43;5.37;;;1.30;81.50;;;;;;2614542;54;20698;-78
2021/12/26 08:58:06;;;;;;;6.93;5.53;;;1.40;80.80;;;;;;2614126;54;20666;-78
2021/12/26 09:00:34;;;;;;;6.60;5.03;;;1.50;80.70;;;;;;2614577;47;20560;-77
2021/12/26 09:03:00;;;;;;;5.83;5.43;;;1.50;81.00;;;;;;2612590;54;20394;-78
2021/12/26 09:05:25;;;;;;;6.30;5.73;;;1.70;79.10;;;;;;2613823;54;20478;-78
2021/12/26 09:07:52;;;;;;;6.80;6.10;;;1.70;78.50;;;;;;2613078;47;20161;-79
2021/12/26 09:10:18;;;;;;;7.63;5.90;;;1.90;78.00;;;;;;2614390;54;20250;-80
2021/12/26 09:12:44;;;;;;;6.13;5.53;;;1.90;77.50;;;;;;2613864;54;20456;-79
2021/12/26 09:15:11;;;;;;;9.00;4.93;;;1.80;78.20;;;;;;2612972;54;20398;-79
2021/12/26 09:17:38;;;;;;;5.93;5.40;;;1.80;78.50;;;;;;2614406;54;20420;-77
2021/12/26 09:20:06;;;;;;;6.13;5.60;;;1.90;78.60;;;;;;2613980;54;20483;-78
2021/12/26 09:22:32;;;;;;;5.40;4.90;;;2.00;77.40;;;;;;2613977;39;20810;-77
2021/12/26 09:24:59;;;;;;;7.43;5.67;;;2.10;79.10;;;;;;2614079;47;20402;-79
2021/12/26 09:27:25;;;;;;;7.37;5.40;;;2.20;76.60;;;;;;2613866;39;20820;-79
2021/12/26 09:29:51;;;;;;;6.70;5.63;;;2.50;75.80;;;;;;2613792;54;20394;-77
2021/12/26 09:32:17;;;;;;;6.70;5.67;;;2.30;76.90;;;;;;2612792;39;20569;-78
2021/12/26 09:34:43;;;;;;;7.80;6.10;;;2.20;79.30;;;;;;2614048;39;20537;-78
2021/12/26 09:37:10;;;;;;;6.37;5.70;;;2.00;81.50;;;;;;2613284;47;20949;-78
2021/12/26 09:39:37;;;;;;;8.70;7.70;;;2.00;81.80;;;;;;2614070;54;20465;-77
2021/12/26 09:42:04;;;;;;;5.80;5.13;;;1.90;83.90;;;;;;2612462;54;20403;-78
2021/12/26 09:44:30;;;;;;;5.40;4.90;;;2.20;80.60;;;;;;2613955;54;20399;-78
2021/12/26 09:46:56;;;;;;;8.60;6.03;;;2.10;80.10;;;;;;2614708;39;20814;-79
2021/12/26 09:49:21;;;;;;;7.17;6.20;;;2.10;82.10;;;;;;2613449;54;20385;-76
2021/12/26 09:51:50;;;;;;;8.13;5.70;;;2.20;82.40;;;;;;2612758;54;20399;-77
2021/12/26 09:54:17;;;;;;;6.50;5.80;;;2.40;80.50;;;;;;2611711;39;20608;-78
2021/12/26 09:56:43;;;;;;;5.83;5.23;;;2.70;79.30;;;;;;2613386;54;20411;-78
2021/12/26 09:59:17;;;;;;;8.10;6.23;;;3.00;74.40;;;;;;2612761;54;21071;-78
2021/12/26 10:01:46;;;;;;;7.80;6.27;;;2.90;76.10;;;;;;2629623;36;20944;-78
2021/12/26 10:04:42;;;;;;;6.57;4.93;;;2.60;78.00;;;;;;2612070;54;20411;-77
2021/12/26 10:07:12;;;;;;;8.57;6.57;;;2.60;79.30;;;;;;2610462;54;20447;-77
2021/12/26 10:09:43;;;;;;;8.20;5.60;;;2.70;79.30;;;;;;2612013;47;20439;-79
2021/12/26 10:12:14;;;;;;;6.23;5.40;;;2.90;79.50;;;;;;2612102;54;20975;-79
2021/12/26 10:14:43;;;;;;;7.00;6.37;;;3.50;73.00;;;;;;2613621;54;20406;-77
2021/12/26 10:17:23;;;;;;;5.83;5.33;;;3.90;69.00;;;;;;2612125;54;20415;-78
2021/12/26 10:19:50;;;;;;;8.87;5.90;;;4.30;66.70;;;;;;2611932;54;20437;-78
2021/12/26 10:22:25;;;;;;;6.90;6.30;;;4.80;63.60;;;;;;2612943;54;20414;-79
2021/12/26 10:24:52;;;;;;;6.50;5.90;;;4.80;63.80;;;;;;2612462;54;20524;-80
2021/12/26 10:27:31;;;;;;;8.20;6.60;;;5.00;61.00;;;;;;2610850;54;20386;-78
2021/12/26 10:29:59;;;;;;;6.53;5.90;;;6.10;56.10;;;;;;2612613;54;20415;-79
2021/12/26 10:32:41;;;;;;;7.00;6.30;;;6.70;54.10;;;;;;2612138;54;20451;-77
2021/12/26 10:35:09;;;;;;;5.07;4.40;;;6.40;54.80;;;;;;2609020;54;20439;-77
2021/12/26 10:37:48;;;;;;;6.20;5.60;;;6.40;54.20;;;;;;2612955;47;20416;-79
2021/12/26 10:40:24;;;;;;;6.23;5.53;;;6.00;56.50;;;;;;2613649;54;20462;-75
2021/12/26 10:42:55;;;;;;;6.20;5.63;;;6.30;56.10;;;;;;2613180;39;20816;-79
2021/12/26 10:45:30;;;;;;;6.57;5.80;;;7.80;51.80;;;;;;2613558;54;20425;-79
2021/12/26 10:47:59;;;;;;;7.43;6.57;;;9.40;45.70;;;;;;2613966;54;20418;-78
2021/12/26 10:50:28;;;;;;;7.23;5.80;;;10.10;42.90;;;;;;2612331;54;20387;-78
2021/12/26 10:52:59;;;;;;;8.00;5.93;;;8.80;46.70;;;;;;2613449;54;20454;-78
2021/12/26 10:55:32;;;;;;;8.00;7.20;;;7.90;49.60;;;;;;2615348;47;20944;-77
2021/12/26 10:58:01;;;;;;;7.40;6.30;;;7.80;49.80;;;;;;2611573;54;20407;-77
2021/12/26 11:00:31;;;;;;;7.43;6.67;;;7.60;51.60;;;;;;2612465;54;20412;-80
2021/12/26 11:03:07;;;;;;;7.70;6.80;;;7.60;51.40;;;;;;2612268;54;20502;-77
2021/12/26 11:05:44;;;;;;;11.00;7.40;;;7.20;54.00;;;;;;2612998;54;20375;-78
2021/12/26 11:08:24;;;;;;;7.20;5.70;;;6.50;55.70;;;;;;2612148;54;20415;-79
2021/12/26 11:10:54;;;;;;;7.13;6.07;;;5.90;59.20;;;;;;2612607;54;21011;-80
2021/12/26 11:13:25;;;;;;;7.50;6.70;;;5.60;61.80;;;;;;2612549;47;20412;-79
2021/12/26 11:15:59;;;;;;;8.40;6.47;;;5.40;64.50;;;;;;2612413;54;20402;-82
2021/12/26 11:18:25;;;;;;;6.57;5.70;;;4.90;68.00;;;;;;2611215;54;20414;-80
2021/12/26 11:20:57;;;;;;;7.77;6.97;;;4.90;69.50;;;;;;2610993;47;20462;-81
2021/12/26 11:23:35;;;;;;;8.70;6.60;;;4.80;70.80;;;;;;2609937;46;20431;-80
2021/12/26 11:26:21;;;;;;;8.30;7.10;;;4.50;73.00;;;;;;2611795;39;20972;-76
2021/12/26 11:28:52;;;;;;;9.93;8.10;;;4.40;73.90;;;;;;2611009;39;20852;-79
2021/12/26 11:31:23;;;;;;;7.97;7.00;;;4.80;71.70;;;;;;2613267;39;20840;-81
2021/12/26 11:34:06;;;;;;;8.50;7.17;;;4.90;71.30;;;;;;2613973;39;20824;-79
2021/12/26 11:36:54;;;;;;;8.87;7.40;;;5.00;70.90;;;;;;2613011;46;22059;-79
2021/12/26 11:39:58;;;;;;;7.87;7.10;;;4.80;72.30;;;;;;2613695;54;20447;-81
2021/12/26 11:43:18;;;;;;;7.47;6.73;;;4.70;73.40;;;;;;2612826;54;20410;-81
2021/12/26 11:47:00;;;;;;;8.63;6.77;;;4.60;76.90;;;;;;2613919;39;20881;-82
2021/12/26 11:50:29;;;;;;;7.70;7.00;;;5.10;73.40;;;;;;2613379;54;20428;-81
2021/12/26 11:54:06;;;;;;;7.97;7.17;;;4.60;76.20;;;;;;2612258;54;20547;-79
2021/12/26 11:57:04;;;;;;;9.10;7.33;;;4.50;79.90;;;;;;2612025;47;20459;-79
2021/12/26 12:00:05;;;;;;;7.73;6.80;;;4.10;86.20;;;;;;2611087;46;20422;-77
2021/12/26 12:02:52;;;;;;;8.03;6.73;;;4.10;87.00;;;;;;2612186;54;21014;-80
2021/12/26 12:05:46;;;;;;;7.90;7.10;;;4.20;87.60;;;;;;2610546;47;20426;-78
2021/12/26 12:08:35;;;;;;;7.83;7.03;;;4.40;84.70;;;;;;2612529;47;20424;-82
2021/12/26 12:11:12;;;;;;;8.93;7.97;;;4.70;81.20;;;;;;2611962;47;20406;-79
2021/12/26 12:13:41;;;;;;;10.87;8.33;;;4.60;80.20;;;;;;2612715;39;21013;-79
2021/12/26 12:16:13;;;;;;;8.57;7.10;;;4.40;82.30;;;;;;2611367;54;20939;-80
2021/12/26 12:18:59;;;;;;;10.23;7.90;;;4.20;85.10;;;;;;2610606;47;20424;-79
2021/12/26 12:21:47;;;;;;;10.90;8.30;;;4.20;88.00;;;;;;2611577;46;20443;-81
2021/12/26 12:24:21;;;;;;;12.10;8.47;;;4.30;82.30;;;;;;2612038;54;20422;-80
2021/12/26 12:26:52;;;;;;;8.57;6.83;;;4.40;84.80;;;;;;2609740;54;20433;-79
2021/12/26 12:29:29;;;;;;;13.00;9.30;;;4.60;81.80;;;;;;2612786;54;20414;-81
2021/12/26 12:32:07;;;;;;;9.40;7.40;;;4.50;82.80;;;;;;2612129;46;20877;-78
2021/12/26 12:35:01;;;;;;;11.70;8.93;;;4.50;82.90;;;;;;2612727;47;20458;-79
2021/12/26 12:37:42;;;;;;;12.93;7.97;;;4.40;83.20;;;;;;2613032;47;20535;-79
2021/12/26 12:40:19;;;;;;;9.07;7.80;;;4.60;83.40;;;;;;2613195;54;20399;-77
2021/12/26 12:43:13;;;;;;;10.60;8.30;;;4.40;85.40;;;;;;2613107;39;20903;-78
2021/12/26 12:46:07;;;;;;;10.47;7.80;;;4.30;88.00;;;;;;2613768;39;20808;-81
2021/12/26 12:48:46;;;;;;;11.73;8.57;;;4.50;86.30;;;;;;2613288;54;20440;-78
2021/12/26 12:51:15;;;;;;;9.20;8.30;;;4.50;88.00;;;;;;2610567;54;20409;-81
2021/12/26 12:54:03;;;;;;;11.10;8.23;;;4.60;88.70;;;;;;2612119;54;20420;-80
2021/12/26 12:56:33;;;;;;;10.17;7.20;;;4.50;92.10;;;;;;2611923;47;20462;-80
2021/12/26 12:59:19;;;;;;;9.23;8.20;;;4.30;97.50;;;;;;2613195;39;20792;-79
2021/12/26 13:01:56;;;;;;;16.47;8.33;;;4.10;99.90;;;;;;2613511;39;20891;-78
2021/12/26 13:04:38;;;;;;;10.23;9.10;;;4.00;99.90;;;;;;2612767;47;20407;-78
2021/12/26 13:07:05;;;;;;;12.80;10.10;;;3.90;99.90;;;;;;2613253;39;20800;-81
2021/12/26 13:09:33;;;;;;;11.10;8.70;;;3.80;99.90;;;;;;2613406;54;20450;-81
2021/12/26 13:12:03;;;;;;;15.67;9.20;;;3.40;99.90;;;;;;2613266;39;20725;-81
2021/12/26 13:14:41;;;;;;;11.23;8.63;;;3.60;99.90;;;;;;2612348;47;20421;-79
2021/12/26 13:17:29;;;;;;;12.57;8.20;;;3.30;99.90;;;;;;2612116;39;20798;-78
2021/12/26 13:20:02;;;;;;;22.17;9.77;;;3.30;99.90;;;;;;2612876;39;20818;-81
2021/12/26 13:22:43;;;;;;;10.70;9.57;;;3.50;99.90;;;;;;2613173;54;20402;-80